createdAt,value
2018-04-02T00:00:11.059Z,97099.05
2018-04-02T00:02:38.619Z,97097.38
2018-04-02T00:05:06.239Z,97096.17
2018-04-02T00:07:33.800Z,97097.73
2018-04-02T00:10:01.462Z,97087.32
2018-04-02T00:12:29.063Z,97086.92
2018-04-02T00:14:56.631Z,97082.91
2018-04-02T00:17:24.213Z,97085.77
2018-04-02T00:19:51.954Z,97080.86
2018-04-02T00:22:19.511Z,97082.78
2018-04-02T00:24:47.090Z,97076.09
2018-04-02T00:27:14.660Z,97065.80
2018-04-02T00:29:42.251Z,97067.44
2018-04-02T00:32:09.846Z,97068.03
2018-04-02T00:34:37.407Z,97066.83
2018-04-02T00:37:04.986Z,97062.83
2018-04-02T00:39:32.536Z,97066.54
2018-04-02T00:42:00.198Z,97061.13
2018-04-02T00:44:27.759Z,97063.67
2018-04-02T00:46:55.312Z,97063.08
2018-04-02T00:49:22.878Z,97063.60
2018-04-02T00:51:50.743Z,97068.54
2018-04-02T00:57:09.061Z,97062.62
2018-04-02T00:59:36.612Z,97056.30
2018-04-02T01:02:04.183Z,97059.46
2018-04-02T01:04:31.731Z,97054.69
2018-04-02T01:06:59.283Z,97058.56
2018-04-02T01:09:26.860Z,97056.42
2018-04-02T01:11:54.411Z,97053.72
2018-04-02T01:14:22.229Z,97046.26
2018-04-02T01:16:49.779Z,97047.63
2018-04-02T01:19:17.340Z,97043.57
2018-04-02T01:21:45.006Z,97053.33
2018-04-02T01:24:12.563Z,97047.72
2018-04-02T01:26:40.234Z,97048.72
2018-04-02T01:29:07.790Z,97046.63
2018-04-02T01:31:35.365Z,97039.09
2018-04-02T01:34:02.943Z,97039.73
2018-04-02T01:36:30.490Z,97039.47
2018-04-02T01:38:58.165Z,97027.86
2018-04-02T01:41:25.719Z,97032.89
2018-04-02T01:43:53.271Z,97026.83
2018-04-02T01:46:20.855Z,97021.69
2018-04-02T01:48:48.403Z,97026.90
2018-04-02T01:51:16.231Z,97022.41
2018-04-02T01:53:43.779Z,97020.37
2018-04-02T01:56:11.362Z,97022.22
2018-04-02T01:58:38.946Z,97016.67
2018-04-02T02:01:06.499Z,97013.64
2018-04-02T02:03:34.238Z,97008.37
2018-04-02T02:06:01.786Z,97005.29
2018-04-02T02:08:29.411Z,97005.78
2018-04-02T02:10:56.991Z,97004.86
2018-04-02T02:13:24.551Z,97004.30
2018-04-02T02:15:52.142Z,97003.31
2018-04-02T02:18:19.704Z,96999.40
2018-04-02T02:20:47.262Z,97003.88
2018-04-02T02:23:14.850Z,96998.66
2018-04-02T02:25:42.410Z,96996.15
2018-04-02T02:28:10.250Z,96993.70
2018-04-02T02:30:37.811Z,96995.73
2018-04-02T02:33:05.375Z,96991.03
2018-04-02T02:35:33.833Z,96991.08
2018-04-02T02:38:01.378Z,96981.16
2018-04-02T02:40:29.173Z,96984.20
2018-04-02T02:42:56.751Z,96978.45
2018-04-02T02:45:24.327Z,96977.66
2018-04-02T02:47:51.913Z,96981.80
2018-04-02T02:50:19.475Z,96976.31
2018-04-02T02:52:47.170Z,96977.81
2018-04-02T02:55:14.730Z,96977.25
2018-04-02T02:57:42.279Z,96978.39
2018-04-02T03:00:09.868Z,96974.15
2018-04-02T03:02:37.419Z,96974.66
2018-04-02T03:05:05.007Z,96969.66
2018-04-02T03:07:32.616Z,96968.25
2018-04-02T03:10:00.168Z,96973.12
2018-04-02T03:12:27.747Z,96959.91
2018-04-02T03:14:55.299Z,96960.99
2018-04-02T03:17:22.878Z,96963.05
2018-04-02T03:19:50.447Z,96968.84
2018-04-02T03:22:18.002Z,96965.33
2018-04-02T03:24:45.741Z,96962.45
2018-04-02T03:27:13.299Z,96965.16
2018-04-02T03:29:40.894Z,96960.14
2018-04-02T03:32:08.450Z,96963.59
2018-04-02T03:34:36.006Z,96965.80
2018-04-02T03:37:03.584Z,96974.03
2018-04-02T03:39:31.143Z,96968.85
2018-04-02T03:41:58.739Z,96964.63
2018-04-02T03:44:26.291Z,96964.09
2018-04-02T03:46:53.852Z,96960.72
2018-04-02T03:49:21.420Z,96954.38
2018-04-02T03:51:48.975Z,96957.68
2018-04-02T03:54:16.663Z,96954.42
2018-04-02T03:56:44.226Z,96954.25
2018-04-02T03:59:12.566Z,96952.80
2018-04-02T04:01:40.135Z,96954.42
2018-04-02T04:04:07.688Z,96945.20
2018-04-02T04:06:35.266Z,96944.53
2018-04-02T04:09:02.826Z,96942.94
2018-04-02T04:11:30.382Z,96942.87
2018-04-02T04:13:57.956Z,96941.11
2018-04-02T04:16:25.503Z,96944.48
2018-04-02T04:18:53.369Z,96940.44
2018-04-02T04:21:20.919Z,96945.08
2018-04-02T04:23:48.477Z,96943.66
2018-04-02T04:26:16.051Z,96945.03
2018-04-02T04:28:43.924Z,96939.31
2018-04-02T04:31:11.884Z,96941.23
2018-04-02T04:33:39.471Z,96935.89
2018-04-02T04:36:07.039Z,96929.35
2018-04-02T04:38:34.610Z,96932.80
2018-04-02T04:41:02.158Z,96937.47
2018-04-02T04:43:30.501Z,96932.18
2018-04-02T04:45:58.160Z,96939.19
2018-04-02T04:48:27.392Z,96935.20
2018-04-02T04:50:55.010Z,96935.06
2018-04-02T04:53:22.885Z,96940.53
2018-04-02T04:55:50.478Z,96937.84
2018-04-02T04:58:18.031Z,96945.08
2018-04-02T05:00:45.583Z,96940.45
2018-04-02T05:03:13.179Z,96937.97
2018-04-02T05:05:41.643Z,96937.06
2018-04-02T05:08:09.454Z,96932.42
2018-04-02T05:10:37.006Z,96933.20
2018-04-02T05:13:04.559Z,96936.17
2018-04-02T05:15:32.178Z,96929.22
2018-04-02T05:17:59.739Z,96939.55
2018-04-02T05:20:27.474Z,96935.75
2018-04-02T05:22:55.018Z,96936.91
2018-04-02T05:25:22.576Z,96935.84
2018-04-02T05:27:50.151Z,96937.70
2018-04-02T05:30:17.714Z,96936.59
2018-04-02T05:32:45.682Z,96929.53
2018-04-02T05:35:14.158Z,96934.03
2018-04-02T05:37:41.706Z,96926.73
2018-04-02T05:40:09.274Z,96927.73
2018-04-02T05:42:36.823Z,96922.98
2018-04-02T05:45:04.401Z,96921.52
2018-04-02T05:47:31.943Z,96926.59
2018-04-02T05:49:59.505Z,96923.08
2018-04-02T05:52:27.071Z,96927.88
2018-04-02T05:54:54.624Z,96927.79
2018-04-02T05:57:22.294Z,96916.47
2018-04-02T05:59:49.839Z,96912.48
2018-04-02T06:02:17.398Z,96916.03
2018-04-02T06:04:44.970Z,96911.84
2018-04-02T06:07:12.523Z,96907.20
2018-04-02T06:09:40.302Z,96907.40
2018-04-02T06:12:07.841Z,96909.92
2018-04-02T06:14:35.387Z,96912.59
2018-04-02T06:17:02.986Z,96909.93
2018-04-02T06:19:30.524Z,96910.52
2018-04-02T06:21:58.095Z,96914.19
2018-04-02T06:24:25.639Z,96909.70
2018-04-02T06:26:53.618Z,96909.55
2018-04-02T06:29:21.208Z,96906.19
2018-04-02T06:31:48.785Z,96902.05
2018-04-02T06:34:16.706Z,96904.48
2018-04-02T06:36:44.256Z,96906.16
2018-04-02T06:39:11.818Z,96905.95
2018-04-02T06:41:39.391Z,96903.48
2018-04-02T06:44:06.934Z,96899.67
2018-04-02T06:46:34.509Z,96892.03
2018-04-02T06:49:02.051Z,96890.21
2018-04-02T06:51:29.598Z,96893.54
2018-04-02T06:53:57.174Z,96895.22
2018-04-02T06:56:24.725Z,96894.81
2018-04-02T06:58:52.321Z,96887.89
2018-04-02T07:01:19.886Z,96884.19
2018-04-02T07:03:47.450Z,96883.13
2018-04-02T07:06:15.023Z,96880.36
2018-04-02T07:08:42.583Z,96880.04
2018-04-02T07:11:10.307Z,96878.31
2018-04-02T07:13:37.854Z,96881.64
2018-04-02T07:16:05.407Z,96885.22
2018-04-02T07:18:32.976Z,96889.25
2018-04-02T07:21:00.528Z,96883.52
2018-04-02T07:23:28.302Z,96879.73
2018-04-02T07:25:55.966Z,96887.53
2018-04-02T07:28:23.522Z,96882.87
2018-04-02T07:30:51.118Z,96881.50
2018-04-02T07:33:18.667Z,96874.71
2018-04-02T07:35:46.394Z,96882.09
2018-04-02T07:38:13.970Z,96880.25
2018-04-02T07:40:41.574Z,96874.30
2018-04-02T07:43:09.173Z,96878.81
2018-04-02T07:45:36.750Z,96871.56
2018-04-02T07:48:04.884Z,96875.87
2018-04-02T07:50:32.430Z,96875.81
2018-04-02T07:53:00.264Z,96877.97
2018-04-02T07:55:30.610Z,96875.33
2018-04-02T07:57:58.183Z,96877.25
2018-04-02T08:00:26.198Z,96863.51
2018-04-02T08:02:54.033Z,96864.11
2018-04-02T08:05:21.594Z,96864.18
2018-04-02T08:07:49.170Z,96861.86
2018-04-02T08:10:16.718Z,96864.41
2018-04-02T08:12:44.448Z,96859.13
2018-04-02T08:15:13.277Z,96855.08
2018-04-02T08:17:40.956Z,96852.72
2018-04-02T08:20:08.544Z,96855.98
2018-04-02T08:22:36.118Z,96851.34
2018-04-02T08:25:03.971Z,96844.75
2018-04-02T08:27:31.526Z,96838.49
2018-04-02T08:29:59.074Z,96843.38
2018-04-02T08:32:27.582Z,96844.63
2018-04-02T08:34:55.138Z,96838.76
2018-04-02T08:37:22.848Z,96837.96
2018-04-02T08:39:50.402Z,96830.64
2018-04-02T08:42:17.961Z,96833.70
2018-04-02T08:44:45.548Z,96832.27
2018-04-02T08:47:13.511Z,96827.75
2018-04-02T08:49:41.097Z,96828.27
2018-04-02T08:52:08.643Z,96824.12
2018-04-02T08:54:36.290Z,96823.46
2018-04-02T08:57:03.857Z,96824.41
2018-04-02T08:59:31.406Z,96822.83
2018-04-02T09:01:59.425Z,96824.91
2018-04-02T09:04:26.990Z,96820.30
2018-04-02T09:06:54.543Z,96817.13
2018-04-02T09:09:22.147Z,96808.89
2018-04-02T09:11:49.753Z,96811.12
2018-04-02T09:14:17.350Z,96805.70
2018-04-02T09:16:44.906Z,96811.27
2018-04-02T09:19:12.663Z,96806.11
2018-04-02T09:21:40.263Z,96808.55
2018-04-02T09:24:07.978Z,96812.41
2018-04-02T09:26:37.030Z,96805.98
2018-04-02T09:29:04.786Z,96806.10
2018-04-02T09:31:32.805Z,96802.69
2018-04-02T09:34:00.857Z,96805.73
2018-04-02T09:36:29.304Z,96796.09
2018-04-02T09:38:57.481Z,96795.73
2018-04-02T09:41:25.138Z,96788.73
2018-04-02T09:43:53.006Z,96788.30
2018-04-02T09:46:21.226Z,96790.05
2018-04-02T09:48:48.942Z,96790.99
2018-04-02T09:51:17.373Z,96782.74
2018-04-02T09:53:44.982Z,96777.53
2018-04-02T09:56:12.562Z,96774.64
2018-04-02T09:58:40.191Z,96777.89
2018-04-02T10:01:08.082Z,96767.25
2018-04-02T10:03:39.018Z,96761.13
2018-04-02T10:06:06.774Z,96760.80
2018-04-02T10:08:34.351Z,96759.50
2018-04-02T10:11:01.948Z,96748.46
2018-04-02T10:13:29.495Z,96742.00
2018-04-02T10:15:57.343Z,96737.63
2018-04-02T10:18:24.907Z,96734.20
2018-04-02T10:20:52.752Z,96737.69
2018-04-02T10:23:20.347Z,96726.16
2018-04-02T10:25:48.887Z,96721.37
2018-04-02T10:28:16.676Z,96715.25
2018-04-02T10:30:44.323Z,96701.78
2018-04-02T10:33:11.818Z,96707.47
2018-04-02T10:35:39.438Z,96706.97
2018-04-02T10:38:07.092Z,96697.28
2018-04-02T10:40:34.702Z,96692.67
2018-04-02T10:43:02.260Z,96685.47
2018-04-02T10:45:29.831Z,96679.16
2018-04-02T10:47:57.678Z,96683.17
2018-04-02T10:50:25.243Z,96676.21
2018-04-02T10:52:53.088Z,96664.59
2018-04-02T10:55:20.678Z,96667.27
2018-04-02T10:57:48.319Z,96663.20
2018-04-02T11:00:15.906Z,96664.14
2018-04-02T11:02:43.452Z,96662.06
2018-04-02T11:05:11.371Z,96655.69
2018-04-02T11:07:38.934Z,96649.70
2018-04-02T11:10:06.494Z,96642.99
2018-04-02T11:12:34.253Z,96636.12
2018-04-02T11:15:01.823Z,96628.95
2018-04-02T11:17:29.884Z,96627.72
2018-04-02T11:19:57.435Z,96624.27
2018-04-02T11:22:25.048Z,96622.64
2018-04-02T11:24:52.859Z,96613.28
2018-04-02T11:27:20.735Z,96618.11
2018-04-02T11:29:48.500Z,96615.20
2018-04-02T11:32:16.163Z,96609.11
2018-04-02T11:34:44.130Z,96613.95
2018-04-02T11:37:11.736Z,96616.54
2018-04-02T11:39:39.302Z,96621.82
2018-04-02T11:42:06.902Z,96610.05
2018-04-02T11:44:34.675Z,96607.33
2018-04-02T11:47:02.224Z,96600.67
2018-04-02T11:49:29.851Z,96596.45
2018-04-02T11:51:57.739Z,96581.96
2018-04-02T11:54:26.250Z,96588.81
2018-04-02T11:56:54.002Z,96587.02
2018-04-02T11:59:21.873Z,96585.29
2018-04-02T12:01:50.650Z,96582.19
2018-04-02T12:04:18.313Z,96581.81
2018-04-02T12:06:46.123Z,96575.89
2018-04-02T12:09:14.665Z,96571.72
2018-04-02T12:11:42.331Z,96575.30
2018-04-02T12:14:09.942Z,96574.41
2018-04-02T12:16:37.501Z,96570.59
2018-04-02T12:19:05.431Z,96569.81
2018-04-02T12:21:33.000Z,96573.19
2018-04-02T12:24:00.594Z,96560.69
2018-04-02T12:26:28.274Z,96555.54
2018-04-02T12:28:55.845Z,96553.61
2018-04-02T12:31:23.607Z,96549.03
2018-04-02T12:33:51.146Z,96561.60
2018-04-02T12:36:18.701Z,96545.08
2018-04-02T12:38:46.305Z,96539.45
2018-04-02T12:41:13.850Z,96539.78
2018-04-02T12:43:41.671Z,96533.53
2018-04-02T12:46:09.230Z,96524.02
2018-04-02T12:48:36.770Z,96524.80
2018-04-02T12:51:04.423Z,96524.07
2018-04-02T12:53:31.983Z,96520.99
2018-04-02T12:55:59.866Z,96517.48
2018-04-02T12:58:27.496Z,96507.50
2018-04-02T13:00:55.098Z,96504.16
2018-04-02T13:03:22.678Z,96496.28
2018-04-02T13:05:50.231Z,96491.30
2018-04-02T13:08:17.839Z,96494.73
2018-04-02T13:10:45.386Z,96486.16
2018-04-02T13:13:12.942Z,96473.22
2018-04-02T13:15:40.554Z,96471.87
2018-04-02T13:18:08.111Z,96471.37
2018-04-02T13:20:36.022Z,96479.08
2018-04-02T13:23:03.576Z,96467.48
2018-04-02T13:25:31.131Z,96465.67
2018-04-02T13:27:58.711Z,96466.55
2018-04-02T13:30:26.691Z,96464.66
2018-04-02T13:32:54.656Z,96466.74
2018-04-02T13:35:22.320Z,96463.57
2018-04-02T13:37:50.083Z,96467.76
2018-04-02T13:40:17.735Z,96467.03
2018-04-02T13:42:45.294Z,96458.67
2018-04-02T13:45:12.925Z,96454.80
2018-04-02T13:47:40.628Z,96456.56
2018-04-02T13:50:08.210Z,96453.46
2018-04-02T13:52:35.812Z,96451.48
2018-04-02T13:55:03.513Z,96452.93
2018-04-02T13:57:31.106Z,96456.75
2018-04-02T13:59:58.677Z,96446.98
2018-04-02T14:02:26.508Z,96439.72
2018-04-02T14:04:54.361Z,96438.28
2018-04-02T14:07:22.226Z,96436.53
2018-04-02T14:09:50.002Z,96427.98
2018-04-02T14:12:17.547Z,96432.20
2018-04-02T14:14:45.146Z,96426.79
2018-04-02T14:17:12.724Z,96417.67
2018-04-02T14:19:40.432Z,96428.27
2018-04-02T14:22:08.030Z,96418.49
2018-04-02T14:24:35.654Z,96413.72
2018-04-02T14:27:03.207Z,96407.19
2018-04-02T14:29:30.786Z,96404.91
2018-04-02T14:31:58.336Z,96399.20
2018-04-02T14:34:26.373Z,96396.42
2018-04-02T14:36:54.017Z,96393.57
2018-04-02T14:39:21.662Z,96399.59
2018-04-02T14:41:49.501Z,96394.63
2018-04-02T14:44:17.291Z,96390.23
2018-04-02T14:46:46.096Z,96378.84
2018-04-02T14:49:13.891Z,96377.53
2018-04-02T14:51:41.746Z,96374.92
2018-04-02T14:54:10.972Z,96370.31
2018-04-02T14:56:39.259Z,96359.30
2018-04-02T14:59:07.475Z,96368.67
2018-04-02T15:01:35.415Z,96367.19
2018-04-02T15:04:06.237Z,96356.70
2018-04-02T15:06:33.890Z,96358.26
2018-04-02T15:09:01.756Z,96353.04
2018-04-02T15:11:29.930Z,96352.33
2018-04-02T15:13:58.614Z,96350.32
2018-04-02T15:16:27.509Z,96344.80
2018-04-02T15:18:55.151Z,96348.81
2018-04-02T15:21:22.746Z,96345.83
2018-04-02T15:23:51.003Z,96349.15
2018-04-02T15:26:19.381Z,96337.19
2018-04-02T15:28:47.248Z,96322.00
2018-04-02T15:31:14.986Z,96313.33
2018-04-02T15:33:42.636Z,96314.61
2018-04-02T15:36:10.643Z,96307.78
2018-04-02T15:38:39.532Z,96311.41
2018-04-02T15:41:07.106Z,96315.38
2018-04-02T15:43:34.683Z,96313.64
2018-04-02T15:46:02.621Z,96309.80
2018-04-02T15:48:30.385Z,96313.81
2018-04-02T15:50:58.153Z,96309.97
2018-04-02T15:53:26.117Z,96303.81
2018-04-02T15:55:54.189Z,96300.34
2018-04-02T15:58:22.903Z,96301.59
2018-04-02T16:00:51.284Z,96298.25
2018-04-02T16:03:21.343Z,96291.02
2018-04-02T16:05:49.240Z,96284.36
2018-04-02T16:08:17.207Z,96278.67
2018-04-02T16:10:45.323Z,96282.52
2018-04-02T16:13:13.453Z,96279.86
2018-04-02T16:15:41.422Z,96273.90
2018-04-02T16:18:10.005Z,96274.36
2018-04-02T16:20:38.077Z,96272.95
2018-04-02T16:23:06.046Z,96276.45
2018-04-02T16:25:34.117Z,96276.72
2018-04-02T16:28:01.983Z,96277.52
2018-04-02T16:30:29.747Z,96273.41
2018-04-02T16:32:57.741Z,96273.36
2018-04-02T16:35:25.686Z,96266.66
2018-04-02T16:37:53.767Z,96268.20
2018-04-02T16:40:22.033Z,96272.38
2018-04-02T16:42:49.898Z,96273.33
2018-04-02T16:45:17.814Z,96271.47
2018-04-02T16:47:45.700Z,96281.19
2018-04-02T16:50:13.609Z,96282.55
2018-04-02T16:52:41.571Z,96277.33
2018-04-02T16:55:09.542Z,96269.70
2018-04-02T16:57:37.744Z,96263.48
2018-04-02T17:00:05.570Z,96264.91
2018-04-02T17:02:33.757Z,96255.70
2018-04-02T17:05:01.745Z,96252.73
2018-04-02T17:07:29.661Z,96242.05
2018-04-02T17:09:57.662Z,96241.06
2018-04-02T17:12:25.427Z,96238.26
2018-04-02T17:14:53.733Z,96240.35
2018-04-02T17:17:21.671Z,96233.50
2018-04-02T17:19:49.676Z,96233.76
2018-04-02T17:22:18.020Z,96235.91
2018-04-02T17:24:45.929Z,96237.64
2018-04-02T17:27:13.743Z,96230.00
2018-04-02T17:29:41.620Z,96238.60
2018-04-02T17:32:09.483Z,96228.20
2018-04-02T17:34:37.661Z,96233.73
2018-04-02T17:37:05.938Z,96230.95
2018-04-02T17:39:35.539Z,96226.51
2018-04-02T17:42:03.610Z,96225.75
2018-04-02T17:44:31.465Z,96225.25
2018-04-02T17:46:59.635Z,96213.97
2018-04-02T17:49:27.722Z,96208.22
2018-04-02T17:51:56.393Z,96204.95
2018-04-02T17:54:24.992Z,96199.64
2018-04-02T17:56:53.022Z,96202.38
2018-04-02T17:59:21.135Z,96192.39
2018-04-02T18:01:49.199Z,96200.08
2018-04-02T18:04:17.176Z,96173.45
2018-04-02T18:06:45.100Z,96155.92
2018-04-02T18:09:13.117Z,96155.99
2018-04-02T18:11:40.977Z,96144.76
2018-04-02T18:14:09.082Z,96137.41
2018-04-02T18:16:37.225Z,96140.97
2018-04-02T18:19:05.193Z,96148.36
2018-04-02T18:21:34.101Z,96162.81
2018-04-02T18:24:02.053Z,96163.08
2018-04-02T18:26:29.918Z,96165.73
2018-04-02T18:28:57.925Z,96161.38
2018-04-02T18:31:25.857Z,96158.38
2018-04-02T18:33:53.842Z,96159.66
2018-04-02T18:36:21.931Z,96159.49
2018-04-02T18:38:49.866Z,96162.92
2018-04-02T18:41:18.450Z,96161.39
2018-04-02T18:43:46.319Z,96168.54
2018-04-02T18:46:14.953Z,96168.66
2018-04-02T18:48:43.072Z,96174.02
2018-04-02T18:51:11.042Z,96175.25
2018-04-02T18:53:39.018Z,96170.56
2018-04-02T18:56:07.721Z,96166.31
2018-04-02T18:58:35.771Z,96170.23
2018-04-02T19:01:03.690Z,96183.42
2018-04-02T19:03:32.543Z,96201.23
2018-04-02T19:06:00.596Z,96199.17
2018-04-02T19:08:28.565Z,96199.44
2018-04-02T19:10:56.534Z,96206.76
2018-04-02T19:13:24.483Z,96204.13
2018-04-02T19:15:52.345Z,96205.33
2018-04-02T19:18:20.236Z,96204.84
2018-04-02T19:20:48.205Z,96206.63
2018-04-02T19:23:17.225Z,96219.69
2018-04-02T19:25:46.123Z,96222.94
2018-04-02T19:28:14.032Z,96222.12
2018-04-02T19:30:42.132Z,96220.23
2018-04-02T19:33:11.337Z,96228.68
2018-04-02T19:35:39.409Z,96224.64
2018-04-02T19:38:07.367Z,96225.10
2018-04-02T19:40:35.234Z,96223.58
2018-04-02T19:43:04.008Z,96203.02
2018-04-02T19:45:32.399Z,96201.70
2018-04-02T19:48:00.486Z,96196.72
2018-04-02T19:50:28.510Z,96186.44
2018-04-02T19:52:56.514Z,96183.39
2018-04-02T19:55:24.891Z,96175.45
2018-04-02T19:57:53.270Z,96174.64
2018-04-02T20:00:21.587Z,96173.13
2018-04-02T20:02:49.513Z,96168.88
2018-04-02T20:05:17.383Z,96167.67
2018-04-02T20:07:45.354Z,96164.59
2018-04-02T20:10:14.240Z,96168.56
2018-04-02T20:12:42.316Z,96168.02
2018-04-02T20:15:10.279Z,96165.67
2018-04-02T20:17:38.353Z,96178.09
2018-04-02T20:20:06.320Z,96180.59
2018-04-02T20:22:34.187Z,96186.61
2018-04-02T20:25:02.422Z,96194.62
2018-04-02T20:27:30.289Z,96192.18
2018-04-02T20:29:58.196Z,96203.11
2018-04-02T20:32:26.164Z,96203.66
2018-04-02T20:34:54.545Z,96196.77
2018-04-02T20:37:22.819Z,96203.74
2018-04-02T20:39:50.789Z,96206.70
2018-04-02T20:42:18.860Z,96208.98
2018-04-02T20:44:46.706Z,96212.03
2018-04-02T20:47:14.504Z,96209.48
2018-04-02T20:49:42.866Z,96206.11
2018-04-02T20:52:10.808Z,96204.91
2018-04-02T20:54:38.604Z,96206.41
2018-04-02T20:57:06.404Z,96221.84
2018-04-02T20:59:34.248Z,96192.52
2018-04-02T21:02:02.201Z,96223.77
2018-04-02T21:04:31.803Z,96204.16
2018-04-02T21:07:00.493Z,96200.31
2018-04-02T21:09:28.463Z,96203.13
2018-04-02T21:12:00.138Z,96207.53
2018-04-02T21:14:28.700Z,96213.69
2018-04-02T21:16:56.669Z,96225.68
2018-04-02T21:19:24.644Z,96220.42
2018-04-02T21:21:52.607Z,96215.08
2018-04-02T21:24:20.475Z,96225.31
2018-04-02T21:26:48.239Z,96220.05
2018-04-02T21:29:16.208Z,96210.36
2018-04-02T21:31:44.074Z,96214.18
2018-04-02T21:34:12.042Z,96238.33
2018-04-02T21:36:39.909Z,96235.33
2018-04-02T21:39:08.281Z,96221.49
2018-04-02T21:41:36.159Z,96216.12
2018-04-02T21:44:04.124Z,96231.23
2018-04-02T21:46:31.935Z,96224.38
2018-04-02T21:48:59.856Z,96205.80
2018-04-02T21:51:27.885Z,96205.33
2018-04-02T21:53:55.572Z,96192.66
2018-04-02T21:56:23.456Z,96193.57
2018-04-02T21:58:51.529Z,96196.08
2018-04-02T22:01:19.496Z,96186.13
2018-04-02T22:03:47.621Z,96190.13
2018-04-02T22:06:27.310Z,96181.84
2018-04-02T22:08:55.231Z,96188.08
2018-04-02T22:11:23.974Z,96193.93
2018-04-02T22:13:52.550Z,96196.25
2018-04-02T22:16:20.258Z,96197.62
2018-04-02T22:18:47.976Z,96191.91
2018-04-02T22:21:16.007Z,96179.23
2018-04-02T22:23:43.593Z,96167.39
2018-04-02T22:26:11.348Z,96166.34
2018-04-02T22:28:39.089Z,96157.99
2018-04-02T22:31:06.901Z,96161.14
2018-04-02T22:33:34.707Z,96172.08
2018-04-02T22:36:02.402Z,96176.63
2018-04-02T22:38:30.024Z,96186.34
2018-04-02T22:40:57.598Z,96188.10
2018-04-02T22:43:25.423Z,96195.30
2018-04-02T22:45:53.013Z,96188.25
2018-04-02T22:48:21.307Z,96193.23
2018-04-02T22:50:48.871Z,96203.34
2018-04-02T22:53:17.203Z,96198.80
2018-04-02T22:55:44.803Z,96201.30
2018-04-02T22:58:12.509Z,96201.41
2018-04-02T23:00:40.069Z,96195.36
2018-04-02T23:03:07.647Z,96201.53
2018-04-02T23:05:35.291Z,96201.86
2018-04-02T23:08:02.872Z,96197.85
2018-04-02T23:10:30.617Z,96200.05
2018-04-02T23:12:58.167Z,96201.22
2018-04-02T23:15:25.735Z,96199.44
2018-04-02T23:17:53.335Z,96191.05
2018-04-02T23:20:20.890Z,96208.08
2018-04-02T23:22:53.040Z,96206.85
2018-04-02T23:25:20.624Z,96209.12
2018-04-02T23:27:48.334Z,96211.55
2018-04-02T23:30:16.012Z,96221.75
2018-04-02T23:32:43.612Z,96219.61
2018-04-02T23:35:11.215Z,96207.67
2018-04-02T23:37:38.775Z,96216.98
2018-04-02T23:40:06.335Z,96223.83
2018-04-02T23:42:33.946Z,96219.59
2018-04-02T23:45:01.625Z,96225.75
2018-04-02T23:47:29.531Z,96227.25
2018-04-02T23:49:57.088Z,96237.84
2018-04-02T23:52:24.642Z,96239.56
2018-04-02T23:54:52.290Z,96236.82
2018-04-02T23:57:20.631Z,96245.03
2018-04-02T23:59:48.467Z,96254.71
